This is the latest recevied weather packets stored in our database for station/object R2AKT-13. If no packets are shown the sender has not sent any weather packets the latest 10 day(s).
| Time | Temp. | Humidity | Pressure | Rain* | Wind** | Luminosity | Snow |
|---|---|---|---|---|---|---|---|
| 1777809384 | 20° C | 38% | 987.3 hPa | - | 2.24 m/s, 206° | - | - |
| 1777808808 | 20.56° C | 38% | 987.5 hPa | - | 1.34 m/s, 187° | - | - |
| 1777808324 | 19.44° C | 40% | 987.5 hPa | - | 1.34 m/s, 247° | - | - |
| 1777807728 | 21.11° C | 37% | 987.5 hPa | - | 0.89 m/s, 264° | - | - |
| 1777807209 | 19.44° C | 40% | 987.6 hPa | - | 0.45 m/s, 257° | - | - |
| 1777806609 | 19.44° C | 40% | 987.7 hPa | - | 0.89 m/s, 215° | - | - |
| 1777806119 | 19.44° C | 40% | 987.8 hPa | - | 0.89 m/s, 238° | - | - |
| 1777805634 | 19.44° C | 41% | 987.9 hPa | - | 2.24 m/s, 181° | - | - |
| 1777805149 | 18.89° C | 41% | 988 hPa | - | 2.24 m/s, 208° | - | - |
| 1777804628 | 19.44° C | 41% | 988 hPa | - | 0.89 m/s, 179° | - | - |
| 1777804099 | 18.33° C | 42% | 988 hPa | - | 3.13 m/s, 180° | - | - |
| 1777803539 | 18.33° C | 43% | 988.1 hPa | - | 1.79 m/s, 235° | - | - |
| 1777803028 | 18.89° C | 41% | 988.2 hPa | - | 0.89 m/s, 202° | - | - |
| 1777802474 | 18.89° C | 42% | 988.2 hPa | - | 2.24 m/s, 236° | - | - |
| 1777801959 | 18.33° C | 42% | 988.4 hPa | - | 3.13 m/s, 186° | - | - |
| 1777801444 | 18.89° C | 42% | 988.5 hPa | - | 0.45 m/s, 214° | - | - |
| 1777800874 | 18.33° C | 44% | 988.6 hPa | - | 2.24 m/s, 176° | - | - |
| 1777800359 | 17.78° C | 44% | 988.7 hPa | - | 0.89 m/s, 210° | - | - |
| 1777799824 | 17.22° C | 45% | 988.7 hPa | - | 0.89 m/s, 214° | - | - |
| 1777799284 | 17.22° C | 46% | 988.7 hPa | - | 1.79 m/s, 187° | - | - |
| 1777798749 | 17.22° C | 45% | 988.8 hPa | - | 1.79 m/s, 212° | - | - |
| 1777798194 | 16.67° C | 46% | 988.9 hPa | - | 0.45 m/s, 239° | - | - |
| 1777797614 | 16.67° C | 46% | 989 hPa | - | 1.79 m/s, 197° | - | - |
| 1777797129 | 16.67° C | 46% | 989 hPa | - | 1.34 m/s, 243° | - | - |
| 1777796549 | 16.11° C | 47% | 989.1 hPa | - | 0.89 m/s, 213° | - | - |
* Rain since midnight (hover to see other rain measurements)
** Current wind speed in m/s (hover to see current wind gust speed)